Helena, MT

11:50 PM MST on February 09, 2016 (GMT -0700)
Colorado Gulch | | Change Station
CLOSE
Current Station
Personal Weather Station
Location: Helena, MT
Elevation: 4528 ft
Nearby Weather Stations

Elev 4528 ft 46.55 °N, 112.18 °W | Updated 0 second ago

Clear
Clear
32.0 °F
Feels Like 28 °F
N
3.8
Wind Variable Wind from WSW
Gusts 3.8 mph

Today
High -- | Low -- °F
--% Chance of Precip.
Yesterday
High -- | Low -- °F
Precip. -- in
Pressure 30.33 in
Visibility 10.0 miles
Clouds Clear
Windchill 28 °F
Dew Point 23 °F
Humidity 69%
Rainfall 0.00 in
Snow Depth Not available.
7:42 AM 5:44 PM
Waxing Crescent, 4% visible
METAR KHLN 100553Z AUTO 00000KT 10SM CLR 00/M03 A3021 RMK AO2 SLP270 T00001028 10067 21006 58012
Pressure 30.33 in
Visibility 10.0 miles
Clouds Clear
Windchill 28 °F
Dew Point 23 °F
Humidity 69%
Rainfall 0.00 in
Snow Depth Not available.
7:42 AM 5:44 PM
Waxing Crescent, 4% visible
METAR KHLN 100553Z AUTO 00000KT 10SM CLR 00/M03 A3021 RMK AO2 SLP270 T00001028 10067 21006 58012

10-Day Weather Forecast

Almanac

Astronomy

Feb. 09, 2016 Rise Set
Actual Time
Civil Twilight
Nautical Twilight
Astronomical Twilight
Moon
Length of Visible Light
Length of Day
Tomorrow will be .
, % of the Moon is Illuminated

Today's Extremes

State Highs State Lows

Community

WunderPhotos

Upload Photos

1,891,826 photos uploaded!

WunderBlog® & News

Nearby

Air Quality

  Air Quality AQ Index Pollutant
Not available.

Snow Depth

Station Depth Elevation

Earthquake Activity

City Distance Mag. Time & Date
Minimum magnitude displayed is 2.5.

Coastal Water Temperatures

Place Temperature

Stations

Nearby Weather Stations

Station Location Temp. Windchill Dew Point Humidity Wind Precip. Elev Updated Type
                   

Watches & Warnings

There are currently no watches in effect.